M. S. Shahan II — WDD7097 — position and weather

sailwx.info

Track history (hours):
 
Tides and Currents Weather Stations Pressure Air Temp Water Temp Dewpoint Dewpoint Depression Visibility Wind Speed Wind Dir Waves Ship Positions

M. S. Shahan II

Owner: Department of Homeland Security Plum Island Facility, Greenport, NY. More information available from US FCC via Universal Licensing System and Coast Guard Vessel Documentation Center.

Last reported at 2018-Aug-14 23:30 UTC. Time now 2018-Aug-14 23:44 UTC.
Position N 41°13' W 072°17'.

Length 40 m; draft 3 m.

Type: Passenger vessel. MMSI: 367181880.

Date/timePositionNaut miles runAvg speedWind from/ knotsBaromVisibWave heightAir tempDewpointWater temp
2018-Aug-14 23:30N 41°13' W 072°17'4 8.5
2018-Aug-14 23:01N 41°16' W 072°21'4 2.1
2018-Aug-14 21:13N 41°13' W 072°17'419.0
2018-Aug-14 21:00N 41°16' W 072°20'4 3.2
2018-Aug-14 19:47N 41°13' W 072°17'516.1
2018-Aug-14 19:30N 41°17' W 072°21'4 8.5
2018-Aug-14 19:00N 41°14' W 072°17'1 0.2
2018-Aug-14 16:34N 41°13' W 072°18'120.6
2018-Aug-14 16:30N 41°14' W 072°19'3 6.8
2018-Aug-14 16:00N 41°17' W 072°21'5 1.2
2018-Aug-14 12:04N 41°13' W 072°17'122.1
2018-Aug-14 12:01N 41°14' W 072°18'3 6.8
2018-Aug-14 11:30N 41°17' W 072°21'6 6.4
2018-Aug-14 10:37N 41°12' W 072°16'323.2
2018-Aug-14 10:30N 41°14' W 072°18'3 7.0
2018-Aug-14 10:00N 41°17' W 072°21'0 0.0
2018-Aug-14 04:23N 41°17' W 072°21'6 1.2
2018-Aug-13 23:45N 41°13' W 072°16'520.3
2018-Aug-13 23:31N 41°16' W 072°21'3 5.9
2018-Aug-13 23:00N 41°14' W 072°18'1 0.7
2018-Aug-13 21:17N 41°13' W 072°17'517.9
2018-Aug-13 21:00N 41°17' W 072°21'510.6
2018-Aug-13 20:30N 41°13' W 072°15'1 1.3
2018-Aug-13 19:44N 41°13' W 072°16'523.7
2018-Aug-13 19:30N 41°17' W 072°21'4 8.7
2018-Aug-13 19:01N 41°13' W 072°17'1 0.2
2018-Aug-13 16:37N 41°13' W 072°17'221.2
2018-Aug-13 16:30N 41°14' W 072°19'3 5.7
2018-Aug-13 16:00N 41°17' W 072°21'5 1.2
2018-Aug-13 12:04N 41°13' W 072°17'120.8
2018-Aug-13 12:01N 41°14' W 072°19'3 6.8
2018-Aug-13 11:30N 41°17' W 072°21'5 5.5
2018-Aug-13 10:33N 41°13' W 072°17'122.5
2018-Aug-13 10:30N 41°13' W 072°18'4 8.5
2018-Aug-13 10:00N 41°17' W 072°21'0 0.1
2018-Aug-13 04:12N 41°17' W 072°21'418.2
2018-Aug-13 04:00N 41°14' W 072°18'4 0.7
2018-Aug-12 22:26N 41°11' W 072°15'817.4
2018-Aug-12 22:00N 41°17' W 072°21'4 8.1
2018-Aug-12 21:31N 41°14' W 072°18'  
2018-Aug-10 12:16N 41°11' W 072°14'520.9
2018-Aug-10 12:00N 41°14' W 072°19'1 1.6
2018-Aug-10 11:31N 41°15' W 072°20'711.4
2018-Aug-10 10:52N 41°10' W 072°12'617.6
2018-Aug-10 10:30N 41°14' W 072°19'3 6.0
2018-Aug-10 10:00N 41°17' W 072°21'0 0.0
2018-Aug-10 09:30N 41°17' W 072°21'0 0.0
2018-Aug-10 09:00N 41°17' W 072°21'0 0.0
2018-Aug-10 08:30N 41°17' W 072°21'0 0.0
2018-Aug-10 08:00N 41°17' W 072°21'0 0.0
2018-Aug-10 07:30N 41°17' W 072°21'0 0.0
2018-Aug-10 07:00N 41°17' W 072°21'0 0.0
2018-Aug-10 06:30N 41°17' W 072°21'0 0.0
2018-Aug-10 06:00N 41°17' W 072°21'0 0.0
2018-Aug-10 05:30N 41°17' W 072°21'0 0.0
2018-Aug-10 05:00N 41°17' W 072°21'0 0.0
2018-Aug-10 04:30N 41°17' W 072°21'0 0.0
2018-Aug-10 04:00N 41°17' W 072°21'0 0.0
2018-Aug-10 03:30N 41°17' W 072°21'0 0.0
2018-Aug-10 03:00N 41°17' W 072°21'0 0.0
2018-Aug-10 02:29N 41°17' W 072°21'0 0.0
2018-Aug-10 02:00N 41°17' W 072°21'0 0.0
2018-Aug-10 01:30N 41°17' W 072°21'0 0.0
2018-Aug-10 01:00N 41°17' W 072°21'0 0.0
2018-Aug-10 00:30N 41°17' W 072°21'0 0.0
2018-Aug-10 00:00N 41°17' W 072°21'0 0.0
2018-Aug-09 23:30N 41°17' W 072°21'0 0.0
2018-Aug-09 23:00N 41°17' W 072°21'0 0.0
2018-Aug-09 22:30N 41°17' W 072°21'0 0.0
2018-Aug-09 22:00N 41°17' W 072°21'0 0.0
2018-Aug-09 21:30N 41°17' W 072°21'0 0.0
2018-Aug-09 21:00N 41°17' W 072°21'5 9.9
2018-Aug-09 20:30N 41°13' W 072°17'4 6.1
2018-Aug-09 19:53N 41°10' W 072°13'821.1
2018-Aug-09 19:30N 41°16' W 072°20'4 8.1
2018-Aug-09 19:00N 41°14' W 072°17'4 1.9
2018-Aug-09 16:42N 41°10' W 072°13'524.2
2018-Aug-09 16:31N 41°13' W 072°18'4 7.2
2018-Aug-09 16:00N 41°16' W 072°20'4 1.1
2018-Aug-09 12:06N 41°13' W 072°17'220.2
2018-Aug-09 12:00N 41°14' W 072°19'3 5.5
2018-Aug-09 11:30N 41°17' W 072°21'5 5.8
2018-Aug-09 10:38N 41°12' W 072°17'320.5
2018-Aug-09 10:30N 41°14' W 072°19'3 5.9
2018-Aug-09 09:59N 41°17' W 072°21'0 0.0
2018-Aug-09 04:20N 41°17' W 072°21'514.9
2018-Aug-09 04:00N 41°13' W 072°17'1 0.1
2018-Aug-08 23:36N 41°13' W 072°16'221.5
2018-Aug-08 23:30N 41°14' W 072°18'3 6.6
2018-Aug-08 23:00N 41°17' W 072°21'5 2.5
2018-Aug-08 21:12N 41°13' W 072°18'419.3
2018-Aug-08 21:00N 41°16' W 072°21'3 5.9
2018-Aug-08 20:30N 41°14' W 072°18'0 0.2
2018-Aug-08 19:47N 41°14' W 072°18'413.6
2018-Aug-08 19:29N 41°17' W 072°21'5 1.9
2018-Aug-08 16:34N 41°13' W 072°16'223.0
2018-Aug-08 16:30N 41°14' W 072°18'3 6.9
2018-Aug-08 16:00N 41°16' W 072°20'2 0.5
2018-Aug-08 11:59N 41°15' W 072°19'2 4.8
2018-Aug-08 11:30N 41°17' W 072°21'5 5.0
2018-Aug-08 10:36N 41°13' W 072°17'220.1
2018-Aug-08 10:30N 41°14' W 072°19'3 6.2
2018-Aug-08 10:00N 41°17' W 072°21'0 0.0
2018-Aug-08 04:19N 41°17' W 072°21'514.8
2018-Aug-08 04:00N 41°13' W 072°17'3 1.0
2018-Aug-08 00:35N 41°11' W 072°14'221.8
2018-Aug-08 00:28N 41°12' W 072°16'4 8.5
2018-Aug-08 00:00N 41°15' W 072°20'2 3.8
2018-Aug-07 23:30N 41°17' W 072°21'3 6.6
2018-Aug-07 23:00N 41°14' W 072°18'4 2.5
2018-Aug-07 21:25N 41°11' W 072°15'717.7
2018-Aug-07 21:00N 41°17' W 072°21'5 9.1
2018-Aug-07 20:30N 41°13' W 072°17'0 0.4
2018-Aug-07 19:52N 41°13' W 072°17'513.7
2018-Aug-07 19:30N 41°17' W 072°21'4 8.7
2018-Aug-07 19:00N 41°13' W 072°18'2 0.9
2018-Aug-07 16:40N 41°12' W 072°15'422.7
2018-Aug-07 16:30N 41°14' W 072°19'2 4.5
2018-Aug-07 16:00N 41°16' W 072°20'3 0.7
2018-Aug-07 12:01N 41°14' W 072°19'122.5
2018-Aug-07 11:58N 41°15' W 072°19'2 4.5
2018-Aug-07 11:29N 41°17' W 072°21'3 3.4
2018-Aug-07 10:32N 41°14' W 072°18'020.8
2018-Aug-07 10:30N 41°14' W 072°19'3 6.2
2018-Aug-07 09:58N 41°17' W 072°21'0 0.0
2018-Aug-07 04:17N 41°17' W 072°21'5 1.0
2018-Aug-06 23:40N 41°13' W 072°17'320.5
2018-Aug-06 23:30N 41°15' W 072°20'3 1.3
2018-Aug-06 21:09N 41°13' W 072°17'322.4
2018-Aug-06 21:00N 41°15' W 072°20'3 5.0
2018-Aug-06 20:30N 41°14' W 072°18'1 1.4
2018-Aug-06 19:42N 41°13' W 072°17'420.0
2018-Aug-06 19:30N 41°16' W 072°21'3 6.8
2018-Aug-06 19:00N 41°13' W 072°18'4 2.0
2018-Aug-06 16:48N 41°10' W 072°13'620.2
2018-Aug-06 16:30N 41°14' W 072°19'2 4.3
2018-Aug-06 16:00N 41°16' W 072°20'4 0.9
2018-Aug-06 12:03N 41°13' W 072°17'123.4
2018-Aug-06 11:59N 41°14' W 072°19'3 5.7
2018-Aug-06 11:30N 41°17' W 072°21'4 3.9
2018-Aug-06 10:32N 41°14' W 072°17'122.3
2018-Aug-06 10:29N 41°14' W 072°18'3 6.6
2018-Aug-06 10:00N 41°17' W 072°21'0 0.0
2018-Aug-06 04:14N 41°17' W 072°21'5 0.8
2018-Aug-05 22:13N 41°13' W 072°17'419.1
2018-Aug-05 22:00N 41°16' W 072°20'3 5.9
2018-Aug-05 21:31N 41°14' W 072°18'  
Track history (hours):
 
Tides and Currents Weather Stations Pressure Air Temp Water Temp Dewpoint Dewpoint Depression Visibility Wind Speed Wind Dir Waves Ship Positions

M. S. Shahan II

Owner: Department of Homeland Security Plum Island Facility, Greenport, NY. More information available from US FCC via Universal Licensing System and Coast Guard Vessel Documentation Center.

Last reported at 2018-Aug-14 23:30 UTC. Time now 2018-Aug-14 23:44 UTC.
Position N 41°13' W 072°17'.

Length 40 m; draft 3 m.

Type: Passenger vessel. MMSI: 367181880.

Date/timePositionNaut miles runAvg speedWind from/ knotsBaromVisibWave heightAir tempDewpointWater temp
2018-Aug-14 23:30N 41°13' W 072°17'4 8.5
2018-Aug-14 23:01N 41°16' W 072°21'4 2.1
2018-Aug-14 21:13N 41°13' W 072°17'419.0
2018-Aug-14 21:00N 41°16' W 072°20'4 3.2
2018-Aug-14 19:47N 41°13' W 072°17'516.1
2018-Aug-14 19:30N 41°17' W 072°21'4 8.5
2018-Aug-14 19:00N 41°14' W 072°17'1 0.2
2018-Aug-14 16:34N 41°13' W 072°18'120.6
2018-Aug-14 16:30N 41°14' W 072°19'3 6.8
2018-Aug-14 16:00N 41°17' W 072°21'5 1.2
2018-Aug-14 12:04N 41°13' W 072°17'122.1
2018-Aug-14 12:01N 41°14' W 072°18'3 6.8
2018-Aug-14 11:30N 41°17' W 072°21'6 6.4
2018-Aug-14 10:37N 41°12' W 072°16'323.2
2018-Aug-14 10:30N 41°14' W 072°18'3 7.0
2018-Aug-14 10:00N 41°17' W 072°21'0 0.0
2018-Aug-14 04:23N 41°17' W 072°21'6 1.2
2018-Aug-13 23:45N 41°13' W 072°16'520.3
2018-Aug-13 23:31N 41°16' W 072°21'3 5.9
2018-Aug-13 23:00N 41°14' W 072°18'1 0.7
2018-Aug-13 21:17N 41°13' W 072°17'517.9
2018-Aug-13 21:00N 41°17' W 072°21'510.6
2018-Aug-13 20:30N 41°13' W 072°15'1 1.3
2018-Aug-13 19:44N 41°13' W 072°16'523.7
2018-Aug-13 19:30N 41°17' W 072°21'4 8.7
2018-Aug-13 19:01N 41°13' W 072°17'1 0.2
2018-Aug-13 16:37N 41°13' W 072°17'221.2
2018-Aug-13 16:30N 41°14' W 072°19'3 5.7
2018-Aug-13 16:00N 41°17' W 072°21'5 1.2
2018-Aug-13 12:04N 41°13' W 072°17'120.8
2018-Aug-13 12:01N 41°14' W 072°19'3 6.8
2018-Aug-13 11:30N 41°17' W 072°21'5 5.5
2018-Aug-13 10:33N 41°13' W 072°17'122.5
2018-Aug-13 10:30N 41°13' W 072°18'4 8.5
2018-Aug-13 10:00N 41°17' W 072°21'0 0.1
2018-Aug-13 04:12N 41°17' W 072°21'418.2
2018-Aug-13 04:00N 41°14' W 072°18'4 0.7
2018-Aug-12 22:26N 41°11' W 072°15'817.4
2018-Aug-12 22:00N 41°17' W 072°21'4 8.1
2018-Aug-12 21:31N 41°14' W 072°18'  
2018-Aug-10 12:16N 41°11' W 072°14'520.9
2018-Aug-10 12:00N 41°14' W 072°19'1 1.6
2018-Aug-10 11:31N 41°15' W 072°20'711.4
2018-Aug-10 10:52N 41°10' W 072°12'617.6
2018-Aug-10 10:30N 41°14' W 072°19'3 6.0
2018-Aug-10 10:00N 41°17' W 072°21'0 0.0
2018-Aug-10 09:30N 41°17' W 072°21'0 0.0
2018-Aug-10 09:00N 41°17' W 072°21'0 0.0
2018-Aug-10 08:30N 41°17' W 072°21'0 0.0
2018-Aug-10 08:00N 41°17' W 072°21'0 0.0
2018-Aug-10 07:30N 41°17' W 072°21'0 0.0
2018-Aug-10 07:00N 41°17' W 072°21'0 0.0
2018-Aug-10 06:30N 41°17' W 072°21'0 0.0
2018-Aug-10 06:00N 41°17' W 072°21'0 0.0
2018-Aug-10 05:30N 41°17' W 072°21'0 0.0
2018-Aug-10 05:00N 41°17' W 072°21'0 0.0
2018-Aug-10 04:30N 41°17' W 072°21'0 0.0
2018-Aug-10 04:00N 41°17' W 072°21'0 0.0
2018-Aug-10 03:30N 41°17' W 072°21'0 0.0
2018-Aug-10 03:00N 41°17' W 072°21'0 0.0
2018-Aug-10 02:29N 41°17' W 072°21'0 0.0
2018-Aug-10 02:00N 41°17' W 072°21'0 0.0
2018-Aug-10 01:30N 41°17' W 072°21'0 0.0
2018-Aug-10 01:00N 41°17' W 072°21'0 0.0
2018-Aug-10 00:30N 41°17' W 072°21'0 0.0
2018-Aug-10 00:00N 41°17' W 072°21'0 0.0
2018-Aug-09 23:30N 41°17' W 072°21'0 0.0
2018-Aug-09 23:00N 41°17' W 072°21'0 0.0
2018-Aug-09 22:30N 41°17' W 072°21'0 0.0
2018-Aug-09 22:00N 41°17' W 072°21'0 0.0
2018-Aug-09 21:30N 41°17' W 072°21'0 0.0
2018-Aug-09 21:00N 41°17' W 072°21'5 9.9
2018-Aug-09 20:30N 41°13' W 072°17'4 6.1
2018-Aug-09 19:53N 41°10' W 072°13'821.1
2018-Aug-09 19:30N 41°16' W 072°20'4 8.1
2018-Aug-09 19:00N 41°14' W 072°17'4 1.9
2018-Aug-09 16:42N 41°10' W 072°13'524.2
2018-Aug-09 16:31N 41°13' W 072°18'4 7.2
2018-Aug-09 16:00N 41°16' W 072°20'4 1.1
2018-Aug-09 12:06N 41°13' W 072°17'220.2
2018-Aug-09 12:00N 41°14' W 072°19'3 5.5
2018-Aug-09 11:30N 41°17' W 072°21'5 5.8
2018-Aug-09 10:38N 41°12' W 072°17'320.5
2018-Aug-09 10:30N 41°14' W 072°19'3 5.9
2018-Aug-09 09:59N 41°17' W 072°21'0 0.0
2018-Aug-09 04:20N 41°17' W 072°21'514.9
2018-Aug-09 04:00N 41°13' W 072°17'1 0.1
2018-Aug-08 23:36N 41°13' W 072°16'221.5
2018-Aug-08 23:30N 41°14' W 072°18'3 6.6
2018-Aug-08 23:00N 41°17' W 072°21'5 2.5
2018-Aug-08 21:12N 41°13' W 072°18'419.3
2018-Aug-08 21:00N 41°16' W 072°21'3 5.9
2018-Aug-08 20:30N 41°14' W 072°18'0 0.2
2018-Aug-08 19:47N 41°14' W 072°18'413.6
2018-Aug-08 19:29N 41°17' W 072°21'5 1.9
2018-Aug-08 16:34N 41°13' W 072°16'223.0
2018-Aug-08 16:30N 41°14' W 072°18'3 6.9
2018-Aug-08 16:00N 41°16' W 072°20'2 0.5
2018-Aug-08 11:59N 41°15' W 072°19'2 4.8
2018-Aug-08 11:30N 41°17' W 072°21'5 5.0
2018-Aug-08 10:36N 41°13' W 072°17'220.1
2018-Aug-08 10:30N 41°14' W 072°19'3 6.2
2018-Aug-08 10:00N 41°17' W 072°21'0 0.0
2018-Aug-08 04:19N 41°17' W 072°21'514.8
2018-Aug-08 04:00N 41°13' W 072°17'3 1.0
2018-Aug-08 00:35N 41°11' W 072°14'221.8
2018-Aug-08 00:28N 41°12' W 072°16'4 8.5
2018-Aug-08 00:00N 41°15' W 072°20'2 3.8
2018-Aug-07 23:30N 41°17' W 072°21'3 6.6
2018-Aug-07 23:00N 41°14' W 072°18'4 2.5
2018-Aug-07 21:25N 41°11' W 072°15'717.7
2018-Aug-07 21:00N 41°17' W 072°21'5 9.1
2018-Aug-07 20:30N 41°13' W 072°17'0 0.4
2018-Aug-07 19:52N 41°13' W 072°17'513.7
2018-Aug-07 19:30N 41°17' W 072°21'4 8.7
2018-Aug-07 19:00N 41°13' W 072°18'2 0.9
2018-Aug-07 16:40N 41°12' W 072°15'422.7
2018-Aug-07 16:30N 41°14' W 072°19'2 4.5
2018-Aug-07 16:00N 41°16' W 072°20'3 0.7
2018-Aug-07 12:01N 41°14' W 072°19'122.5
2018-Aug-07 11:58N 41°15' W 072°19'2 4.5
2018-Aug-07 11:29N 41°17' W 072°21'3 3.4
2018-Aug-07 10:32N 41°14' W 072°18'020.8
2018-Aug-07 10:30N 41°14' W 072°19'3 6.2
2018-Aug-07 09:58N 41°17' W 072°21'0 0.0
2018-Aug-07 04:17N 41°17' W 072°21'5 1.0
2018-Aug-06 23:40N 41°13' W 072°17'320.5
2018-Aug-06 23:30N 41°15' W 072°20'3 1.3
2018-Aug-06 21:09N 41°13' W 072°17'322.4
2018-Aug-06 21:00N 41°15' W 072°20'3 5.0
2018-Aug-06 20:30N 41°14' W 072°18'1 1.4
2018-Aug-06 19:42N 41°13' W 072°17'420.0
2018-Aug-06 19:30N 41°16' W 072°21'3 6.8
2018-Aug-06 19:00N 41°13' W 072°18'4 2.0
2018-Aug-06 16:48N 41°10' W 072°13'620.2
2018-Aug-06 16:30N 41°14' W 072°19'2 4.3
2018-Aug-06 16:00N 41°16' W 072°20'4 0.9
2018-Aug-06 12:03N 41°13' W 072°17'123.4
2018-Aug-06 11:59N 41°14' W 072°19'3 5.7
2018-Aug-06 11:30N 41°17' W 072°21'4 3.9
2018-Aug-06 10:32N 41°14' W 072°17'122.3
2018-Aug-06 10:29N 41°14' W 072°18'3 6.6
2018-Aug-06 10:00N 41°17' W 072°21'0 0.0
2018-Aug-06 04:14N 41°17' W 072°21'5 0.8
2018-Aug-05 22:13N 41°13' W 072°17'419.1
2018-Aug-05 22:00N 41°16' W 072°20'3 5.9
2018-Aug-05 21:31N 41°14' W 072°18'  

Dump ship's entire track history